Nashotah, Wisconsin
Current Conditions -  °F | °C
As of 10:15 PM on Monday 22 Dec 2014 (Local Time) from KUES Reporting Station
Light Rain Light Rain  
Wind Chill: 27°   Ceiling: 500
Heat Index: 36°   Visibility: 4mi
Dew Point: 36°   Wind: 13mph
Humidity: 100%   Direction: 110°ESE
Pressure: 29.64"   Gusts: 18mph
Location:  43.1°N, 88.4°W
Report Text: KUES 230415Z AUTO 11011G16KT 4SM -RA OVC005 02/02 A2964 RMK AO2 P0001
Loading
Personal Weather Stations






























Interactive Weather Map New forecast layout! Learn more

10-Day Weather Forecast

Advertisements
Track Severe Weather on mobile